Accueil
METAR-TAF:

METAR-TAF

Aéroports :

Odiham, Angleterre

latitude: 51-14N, longitude: 000-57W, altitude: 123 m

Observation

Le bulletin a été fait il y a 24 minutes, à 23:50 UTC
Vent 1 kt de nord-ouest
Température 12°C
Humidité 82%
Pression 1022 hPa
Visibilité 10 km ou plus

METAR: EGVO 202350Z AUTO 32001KT 9999 NCD 12/09 Q1022

Heure: 01:14 (00:14 UTC)

Prévision

Le bulletin a été fait il y a 10 heures et 55 minutes, à 13:19 UTC
Prévision valable du 20 à 15 UTC au 21 à 03 UTC
Vent 6 kt de nord-ouest
Visibilité 10 km ou plus
pas de nuages en-dessous de 1500 mètres et pas de cumulonimbus.

TAF: EGVO 201319Z 2015/2103 32006KT CAVOK

Observations et prévisions météorologiques de plus de 4000 aéroports (messages METAR et TAF).

Les stations disponibles sont représentées par des disques jaunes et rouges sur la carte.

Passer la souris dessus pour voir le nom de la station.

Cliquer dessus pour voir les observations et prévisions météorologiques.

Pour changer de carte: cliquez sur les boutons verts avec une croix noire pour zoomer, sur le bouton vert avec un tiret pour effectuer un zoom arrière, ou sur les flèches vertes pour les cartes adjacentes.


METAR-TAF: